sensor_id;sensor_type;location;lat;lon;timestamp;P1;durP1;ratioP1;P2;durP2;ratioP2
20034;SDS011;10178;48.034;9.800;2023-11-19T00:00:20;2.78;;;2.40;;
20034;SDS011;10178;48.034;9.800;2023-11-19T00:02:46;2.63;;;2.43;;
20034;SDS011;10178;48.034;9.800;2023-11-19T00:05:12;2.97;;;2.30;;
20034;SDS011;10178;48.034;9.800;2023-11-19T00:07:38;2.70;;;2.50;;
20034;SDS011;10178;48.034;9.800;2023-11-19T00:10:11;2.80;;;2.50;;
20034;SDS011;10178;48.034;9.800;2023-11-19T00:12:39;3.70;;;2.83;;
20034;SDS011;10178;48.034;9.800;2023-11-19T00:15:06;3.33;;;2.70;;
20034;SDS011;10178;48.034;9.800;2023-11-19T00:17:36;1.88;;;1.77;;
20034;SDS011;10178;48.034;9.800;2023-11-19T00:20:04;3.23;;;2.40;;
20034;SDS011;10178;48.034;9.800;2023-11-19T00:22:31;3.23;;;2.47;;
20034;SDS011;10178;48.034;9.800;2023-11-19T00:24:56;1.83;;;1.73;;
20034;SDS011;10178;48.034;9.800;2023-11-19T00:27:22;3.60;;;2.65;;
20034;SDS011;10178;48.034;9.800;2023-11-19T00:29:48;2.28;;;2.08;;
20034;SDS011;10178;48.034;9.800;2023-11-19T00:32:14;5.05;;;2.30;;
20034;SDS011;10178;48.034;9.800;2023-11-19T00:34:40;2.90;;;2.70;;
20034;SDS011;10178;48.034;9.800;2023-11-19T00:37:06;5.30;;;2.70;;
20034;SDS011;10178;48.034;9.800;2023-11-19T00:39:31;3.27;;;2.97;;
20034;SDS011;10178;48.034;9.800;2023-11-19T00:41:57;3.25;;;2.42;;
20034;SDS011;10178;48.034;9.800;2023-11-19T00:44:23;3.13;;;2.63;;
20034;SDS011;10178;48.034;9.800;2023-11-19T00:46:48;2.37;;;1.80;;
20034;SDS011;10178;48.034;9.800;2023-11-19T00:49:14;3.07;;;2.60;;
20034;SDS011;10178;48.034;9.800;2023-11-19T00:51:40;3.00;;;2.53;;
20034;SDS011;10178;48.034;9.800;2023-11-19T00:54:06;2.97;;;2.63;;
20034;SDS011;10178;48.034;9.800;2023-11-19T00:56:31;2.90;;;2.43;;
20034;SDS011;10178;48.034;9.800;2023-11-19T00:58:57;3.30;;;3.00;;
20034;SDS011;10178;48.034;9.800;2023-11-19T01:01:22;2.97;;;2.67;;
20034;SDS011;10178;48.034;9.800;2023-11-19T01:03:48;3.75;;;3.40;;
20034;SDS011;10178;48.034;9.800;2023-11-19T01:06:14;3.80;;;3.50;;
20034;SDS011;10178;48.034;9.800;2023-11-19T01:08:42;3.90;;;3.50;;
20034;SDS011;10178;48.034;9.800;2023-11-19T01:11:08;3.37;;;3.07;;
20034;SDS011;10178;48.034;9.800;2023-11-19T01:13:34;4.00;;;3.07;;
20034;SDS011;10178;48.034;9.800;2023-11-19T01:15:59;3.73;;;2.90;;
20034;SDS011;10178;48.034;9.800;2023-11-19T01:18:27;4.47;;;3.50;;
20034;SDS011;10178;48.034;9.800;2023-11-19T01:20:52;3.95;;;3.55;;
20034;SDS011;10178;48.034;9.800;2023-11-19T01:23:18;5.05;;;3.45;;
20034;SDS011;10178;48.034;9.800;2023-11-19T01:25:43;3.77;;;3.43;;
20034;SDS011;10178;48.034;9.800;2023-11-19T01:28:09;4.13;;;3.50;;
20034;SDS011;10178;48.034;9.800;2023-11-19T01:30:35;4.37;;;3.60;;
20034;SDS011;10178;48.034;9.800;2023-11-19T01:33:00;3.90;;;3.60;;
20034;SDS011;10178;48.034;9.800;2023-11-19T01:35:26;5.38;;;3.95;;
20034;SDS011;10178;48.034;9.800;2023-11-19T01:37:52;5.77;;;4.13;;
20034;SDS011;10178;48.034;9.800;2023-11-19T01:40:21;6.20;;;3.93;;
20034;SDS011;10178;48.034;9.800;2023-11-19T01:42:47;3.42;;;3.13;;
20034;SDS011;10178;48.034;9.800;2023-11-19T01:45:19;3.30;;;3.00;;
20034;SDS011;10178;48.034;9.800;2023-11-19T01:47:51;2.70;;;2.50;;
20034;SDS011;10178;48.034;9.800;2023-11-19T01:50:17;2.40;;;2.20;;
20034;SDS011;10178;48.034;9.800;2023-11-19T01:52:44;3.60;;;3.00;;
20034;SDS011;10178;48.034;9.800;2023-11-19T01:55:10;3.63;;;2.63;;
20034;SDS011;10178;48.034;9.800;2023-11-19T01:57:37;3.00;;;2.70;;
20034;SDS011;10178;48.034;9.800;2023-11-19T02:00:03;3.08;;;2.80;;
20034;SDS011;10178;48.034;9.800;2023-11-19T02:02:29;4.78;;;3.60;;
20034;SDS011;10178;48.034;9.800;2023-11-19T02:04:55;2.87;;;2.67;;
20034;SDS011;10178;48.034;9.800;2023-11-19T02:07:21;5.78;;;4.18;;
20034;SDS011;10178;48.034;9.800;2023-11-19T02:09:49;3.50;;;3.20;;
20034;SDS011;10178;48.034;9.800;2023-11-19T02:12:14;5.80;;;4.57;;
20034;SDS011;10178;48.034;9.800;2023-11-19T02:14:40;4.83;;;4.43;;
20034;SDS011;10178;48.034;9.800;2023-11-19T02:17:05;4.90;;;4.50;;
20034;SDS011;10178;48.034;9.800;2023-11-19T02:19:31;3.60;;;3.30;;
20034;SDS011;10178;48.034;9.800;2023-11-19T02:21:57;4.05;;;3.75;;
20034;SDS011;10178;48.034;9.800;2023-11-19T02:24:22;3.13;;;2.80;;
20034;SDS011;10178;48.034;9.800;2023-11-19T02:26:52;4.03;;;3.63;;
20034;SDS011;10178;48.034;9.800;2023-11-19T02:29:27;4.53;;;4.13;;
20034;SDS011;10178;48.034;9.800;2023-11-19T02:31:53;3.13;;;2.87;;
20034;SDS011;10178;48.034;9.800;2023-11-19T02:34:20;5.77;;;3.73;;
20034;SDS011;10178;48.034;9.800;2023-11-19T02:36:46;3.93;;;3.63;;
20034;SDS011;10178;48.034;9.800;2023-11-19T02:39:12;3.53;;;3.00;;
20034;SDS011;10178;48.034;9.800;2023-11-19T02:41:38;4.27;;;3.87;;
20034;SDS011;10178;48.034;9.800;2023-11-19T02:44:05;4.40;;;3.87;;
20034;SDS011;10178;48.034;9.800;2023-11-19T02:46:31;3.40;;;2.95;;
20034;SDS011;10178;48.034;9.800;2023-11-19T02:48:57;3.60;;;3.30;;
20034;SDS011;10178;48.034;9.800;2023-11-19T02:51:22;3.83;;;3.37;;
20034;SDS011;10178;48.034;9.800;2023-11-19T02:53:48;3.75;;;3.30;;
20034;SDS011;10178;48.034;9.800;2023-11-19T02:56:14;3.92;;;3.53;;
20034;SDS011;10178;48.034;9.800;2023-11-19T02:58:50;3.03;;;2.23;;
20034;SDS011;10178;48.034;9.800;2023-11-19T03:01:21;3.47;;;3.00;;
20034;SDS011;10178;48.034;9.800;2023-11-19T03:03:59;3.93;;;3.53;;
20034;SDS011;10178;48.034;9.800;2023-11-19T03:06:26;3.50;;;3.20;;
20034;SDS011;10178;48.034;9.800;2023-11-19T03:08:52;3.78;;;3.40;;
20034;SDS011;10178;48.034;9.800;2023-11-19T03:11:19;4.55;;;3.92;;
20034;SDS011;10178;48.034;9.800;2023-11-19T03:13:45;3.90;;;3.60;;
20034;SDS011;10178;48.034;9.800;2023-11-19T03:16:11;4.03;;;3.20;;
20034;SDS011;10178;48.034;9.800;2023-11-19T03:18:37;4.30;;;3.47;;
20034;SDS011;10178;48.034;9.800;2023-11-19T03:21:04;3.35;;;2.97;;
20034;SDS011;10178;48.034;9.800;2023-11-19T03:23:31;3.40;;;3.10;;
20034;SDS011;10178;48.034;9.800;2023-11-19T03:25:56;3.83;;;2.90;;
20034;SDS011;10178;48.034;9.800;2023-11-19T03:28:22;3.63;;;2.63;;
20034;SDS011;10178;48.034;9.800;2023-11-19T03:30:48;2.50;;;2.20;;
20034;SDS011;10178;48.034;9.800;2023-11-19T03:33:13;4.50;;;2.60;;
20034;SDS011;10178;48.034;9.800;2023-11-19T03:35:39;2.63;;;2.43;;
20034;SDS011;10178;48.034;9.800;2023-11-19T03:38:06;2.95;;;2.63;;
20034;SDS011;10178;48.034;9.800;2023-11-19T03:40:31;3.25;;;2.95;;
20034;SDS011;10178;48.034;9.800;2023-11-19T03:42:57;3.65;;;3.00;;
20034;SDS011;10178;48.034;9.800;2023-11-19T03:45:23;4.50;;;3.47;;
20034;SDS011;10178;48.034;9.800;2023-11-19T03:47:49;4.38;;;3.22;;
20034;SDS011;10178;48.034;9.800;2023-11-19T03:50:16;4.55;;;3.70;;
20034;SDS011;10178;48.034;9.800;2023-11-19T03:52:42;3.25;;;2.95;;
20034;SDS011;10178;48.034;9.800;2023-11-19T03:55:08;3.55;;;3.25;;
20034;SDS011;10178;48.034;9.800;2023-11-19T03:57:34;3.03;;;2.67;;
20034;SDS011;10178;48.034;9.800;2023-11-19T04:00:00;3.00;;;2.63;;
20034;SDS011;10178;48.034;9.800;2023-11-19T04:02:31;6.97;;;2.67;;
20034;SDS011;10178;48.034;9.800;2023-11-19T04:04:57;3.25;;;2.42;;
20034;SDS011;10178;48.034;9.800;2023-11-19T04:07:23;2.35;;;2.10;;
20034;SDS011;10178;48.034;9.800;2023-11-19T04:09:48;2.92;;;2.38;;
20034;SDS011;10178;48.034;9.800;2023-11-19T04:12:14;2.83;;;2.50;;
20034;SDS011;10178;48.034;9.800;2023-11-19T04:14:39;6.50;;;2.90;;
20034;SDS011;10178;48.034;9.800;2023-11-19T04:17:05;3.30;;;2.80;;
20034;SDS011;10178;48.034;9.800;2023-11-19T04:19:31;4.27;;;3.43;;
20034;SDS011;10178;48.034;9.800;2023-11-19T04:21:57;6.47;;;3.50;;
20034;SDS011;10178;48.034;9.800;2023-11-19T04:24:23;3.58;;;3.08;;
20034;SDS011;10178;48.034;9.800;2023-11-19T04:26:49;3.00;;;2.58;;
20034;SDS011;10178;48.034;9.800;2023-11-19T04:29:15;3.15;;;2.42;;
20034;SDS011;10178;48.034;9.800;2023-11-19T04:31:42;2.83;;;2.55;;
20034;SDS011;10178;48.034;9.800;2023-11-19T04:34:12;3.50;;;2.60;;
20034;SDS011;10178;48.034;9.800;2023-11-19T04:36:38;3.00;;;2.60;;
20034;SDS011;10178;48.034;9.800;2023-11-19T04:39:04;2.70;;;2.50;;
20034;SDS011;10178;48.034;9.800;2023-11-19T04:41:49;6.80;;;2.28;;
20034;SDS011;10178;48.034;9.800;2023-11-19T04:44:19;2.87;;;2.57;;
20034;SDS011;10178;48.034;9.800;2023-11-19T04:46:45;2.97;;;2.78;;
20034;SDS011;10178;48.034;9.800;2023-11-19T04:49:11;2.83;;;2.53;;
20034;SDS011;10178;48.034;9.800;2023-11-19T04:51:38;2.50;;;2.30;;
20034;SDS011;10178;48.034;9.800;2023-11-19T04:54:07;4.33;;;3.23;;
20034;SDS011;10178;48.034;9.800;2023-11-19T04:56:34;4.40;;;3.03;;
20034;SDS011;10178;48.034;9.800;2023-11-19T04:59:01;3.95;;;3.50;;
20034;SDS011;10178;48.034;9.800;2023-11-19T05:01:27;4.63;;;3.72;;
20034;SDS011;10178;48.034;9.800;2023-11-19T05:03:53;5.15;;;3.88;;
20034;SDS011;10178;48.034;9.800;2023-11-19T05:06:19;5.65;;;3.83;;
20034;SDS011;10178;48.034;9.800;2023-11-19T05:08:45;4.50;;;4.10;;
20034;SDS011;10178;48.034;9.800;2023-11-19T05:11:11;4.25;;;3.63;;
20034;SDS011;10178;48.034;9.800;2023-11-19T05:13:43;4.43;;;3.80;;
20034;SDS011;10178;48.034;9.800;2023-11-19T05:16:10;3.38;;;3.08;;
20034;SDS011;10178;48.034;9.800;2023-11-19T05:18:39;5.00;;;4.25;;
20034;SDS011;10178;48.034;9.800;2023-11-19T05:21:05;6.75;;;4.47;;
20034;SDS011;10178;48.034;9.800;2023-11-19T05:23:31;6.10;;;4.80;;
20034;SDS011;10178;48.034;9.800;2023-11-19T05:25:58;6.28;;;5.07;;
20034;SDS011;10178;48.034;9.800;2023-11-19T05:28:25;4.72;;;3.53;;
20034;SDS011;10178;48.034;9.800;2023-11-19T05:30:51;6.20;;;2.83;;
20034;SDS011;10178;48.034;9.800;2023-11-19T05:33:17;3.92;;;3.53;;
20034;SDS011;10178;48.034;9.800;2023-11-19T05:35:42;3.40;;;3.10;;
20034;SDS011;10178;48.034;9.800;2023-11-19T05:38:08;3.95;;;3.55;;
20034;SDS011;10178;48.034;9.800;2023-11-19T05:40:34;3.88;;;3.15;;
20034;SDS011;10178;48.034;9.800;2023-11-19T05:43:00;4.22;;;3.80;;
20034;SDS011;10178;48.034;9.800;2023-11-19T05:45:26;5.00;;;4.00;;
20034;SDS011;10178;48.034;9.800;2023-11-19T05:47:52;4.87;;;4.20;;
20034;SDS011;10178;48.034;9.800;2023-11-19T05:50:17;4.07;;;3.67;;
20034;SDS011;10178;48.034;9.800;2023-11-19T05:52:43;3.88;;;3.20;;
20034;SDS011;10178;48.034;9.800;2023-11-19T05:55:09;6.43;;;4.38;;
20034;SDS011;10178;48.034;9.800;2023-11-19T05:57:38;4.22;;;3.83;;
20034;SDS011;10178;48.034;9.800;2023-11-19T06:00:05;5.40;;;3.40;;
20034;SDS011;10178;48.034;9.800;2023-11-19T06:02:33;3.60;;;3.08;;
20034;SDS011;10178;48.034;9.800;2023-11-19T06:04:59;4.10;;;3.35;;
20034;SDS011;10178;48.034;9.800;2023-11-19T06:07:26;2.53;;;2.40;;
20034;SDS011;10178;48.034;9.800;2023-11-19T06:09:52;3.08;;;2.53;;
20034;SDS011;10178;48.034;9.800;2023-11-19T06:12:17;3.17;;;2.92;;
20034;SDS011;10178;48.034;9.800;2023-11-19T06:14:43;3.33;;;3.00;;
20034;SDS011;10178;48.034;9.800;2023-11-19T06:17:08;3.28;;;2.97;;
20034;SDS011;10178;48.034;9.800;2023-11-19T06:19:36;3.55;;;3.03;;
20034;SDS011;10178;48.034;9.800;2023-11-19T06:22:03;2.95;;;2.20;;
20034;SDS011;10178;48.034;9.800;2023-11-19T06:24:29;3.10;;;2.80;;
20034;SDS011;10178;48.034;9.800;2023-11-19T06:26:54;3.20;;;2.70;;
20034;SDS011;10178;48.034;9.800;2023-11-19T06:29:20;3.25;;;2.35;;
20034;SDS011;10178;48.034;9.800;2023-11-19T06:31:46;3.85;;;2.10;;
20034;SDS011;10178;48.034;9.800;2023-11-19T06:34:14;3.35;;;3.05;;
20034;SDS011;10178;48.034;9.800;2023-11-19T06:36:40;2.80;;;2.55;;
20034;SDS011;10178;48.034;9.800;2023-11-19T06:39:05;3.72;;;3.42;;
20034;SDS011;10178;48.034;9.800;2023-11-19T06:41:31;3.28;;;2.97;;
20034;SDS011;10178;48.034;9.800;2023-11-19T06:43:57;2.28;;;2.05;;
20034;SDS011;10178;48.034;9.800;2023-11-19T06:46:22;2.40;;;2.20;;
20034;SDS011;10178;48.034;9.800;2023-11-19T06:48:48;3.15;;;2.85;;
20034;SDS011;10178;48.034;9.800;2023-11-19T06:51:14;3.95;;;3.50;;
20034;SDS011;10178;48.034;9.800;2023-11-19T06:53:42;5.07;;;2.70;;
20034;SDS011;10178;48.034;9.800;2023-11-19T06:56:19;4.10;;;3.67;;
20034;SDS011;10178;48.034;9.800;2023-11-19T06:58:49;4.35;;;3.85;;
20034;SDS011;10178;48.034;9.800;2023-11-19T07:01:15;3.80;;;3.50;;
20034;SDS011;10178;48.034;9.800;2023-11-19T07:03:43;2.80;;;2.60;;
20034;SDS011;10178;48.034;9.800;2023-11-19T07:06:11;2.47;;;2.25;;
20034;SDS011;10178;48.034;9.800;2023-11-19T07:08:43;2.70;;;1.90;;
20034;SDS011;10178;48.034;9.800;2023-11-19T07:11:13;2.10;;;1.90;;
20034;SDS011;10178;48.034;9.800;2023-11-19T07:13:42;6.55;;;4.07;;
20034;SDS011;10178;48.034;9.800;2023-11-19T07:16:07;20.42;;;11.52;;
20034;SDS011;10178;48.034;9.800;2023-11-19T07:18:36;12.25;;;7.82;;
20034;SDS011;10178;48.034;9.800;2023-11-19T07:21:02;3.75;;;3.17;;
20034;SDS011;10178;48.034;9.800;2023-11-19T07:23:29;10.68;;;7.63;;
20034;SDS011;10178;48.034;9.800;2023-11-19T07:25:54;19.30;;;11.57;;
20034;SDS011;10178;48.034;9.800;2023-11-19T07:28:20;51.10;;;27.35;;
20034;SDS011;10178;48.034;9.800;2023-11-19T07:30:46;8.60;;;5.85;;
20034;SDS011;10178;48.034;9.800;2023-11-19T07:33:11;22.27;;;15.15;;
20034;SDS011;10178;48.034;9.800;2023-11-19T07:35:38;7.03;;;6.32;;
20034;SDS011;10178;48.034;9.800;2023-11-19T07:38:06;9.90;;;8.90;;
20034;SDS011;10178;48.034;9.800;2023-11-19T07:40:31;8.02;;;7.32;;
20034;SDS011;10178;48.034;9.800;2023-11-19T07:42:57;7.07;;;4.80;;
20034;SDS011;10178;48.034;9.800;2023-11-19T07:45:23;6.22;;;4.63;;
20034;SDS011;10178;48.034;9.800;2023-11-19T07:47:48;6.22;;;5.28;;
20034;SDS011;10178;48.034;9.800;2023-11-19T07:50:16;6.10;;;4.95;;
20034;SDS011;10178;48.034;9.800;2023-11-19T07:52:44;6.03;;;4.55;;
20034;SDS011;10178;48.034;9.800;2023-11-19T07:55:10;4.88;;;4.07;;
20034;SDS011;10178;48.034;9.800;2023-11-19T07:57:35;3.33;;;3.10;;
20034;SDS011;10178;48.034;9.800;2023-11-19T08:00:01;4.40;;;4.00;;
20034;SDS011;10178;48.034;9.800;2023-11-19T08:02:28;4.00;;;3.65;;
20034;SDS011;10178;48.034;9.800;2023-11-19T08:04:53;5.45;;;4.47;;
20034;SDS011;10178;48.034;9.800;2023-11-19T08:07:20;3.80;;;3.50;;
20034;SDS011;10178;48.034;9.800;2023-11-19T08:09:46;4.20;;;3.80;;
20034;SDS011;10178;48.034;9.800;2023-11-19T08:12:12;4.30;;;3.63;;
20034;SDS011;10178;48.034;9.800;2023-11-19T08:14:39;4.25;;;3.80;;
20034;SDS011;10178;48.034;9.800;2023-11-19T08:17:05;4.75;;;3.38;;
20034;SDS011;10178;48.034;9.800;2023-11-19T08:19:31;4.13;;;3.38;;
20034;SDS011;10178;48.034;9.800;2023-11-19T08:21:57;4.55;;;3.40;;
20034;SDS011;10178;48.034;9.800;2023-11-19T08:24:23;3.00;;;2.80;;
20034;SDS011;10178;48.034;9.800;2023-11-19T08:26:48;2.78;;;2.58;;
20034;SDS011;10178;48.034;9.800;2023-11-19T08:29:14;3.22;;;2.97;;
20034;SDS011;10178;48.034;9.800;2023-11-19T08:31:39;3.50;;;3.08;;
20034;SDS011;10178;48.034;9.800;2023-11-19T08:34:05;3.20;;;2.90;;
20034;SDS011;10178;48.034;9.800;2023-11-19T08:36:33;5.22;;;3.13;;
20034;SDS011;10178;48.034;9.800;2023-11-19T08:38:59;3.33;;;2.60;;
20034;SDS011;10178;48.034;9.800;2023-11-19T08:41:25;2.90;;;2.33;;
20034;SDS011;10178;48.034;9.800;2023-11-19T08:43:51;2.88;;;2.60;;
20034;SDS011;10178;48.034;9.800;2023-11-19T08:46:17;2.80;;;2.60;;
20034;SDS011;10178;48.034;9.800;2023-11-19T08:48:42;2.42;;;2.22;;
20034;SDS011;10178;48.034;9.800;2023-11-19T08:51:08;4.57;;;2.70;;
20034;SDS011;10178;48.034;9.800;2023-11-19T08:53:34;2.80;;;2.58;;
20034;SDS011;10178;48.034;9.800;2023-11-19T08:56:02;3.53;;;2.97;;
20034;SDS011;10178;48.034;9.800;2023-11-19T08:59:01;3.03;;;2.65;;
20034;SDS011;10178;48.034;9.800;2023-11-19T09:04:24;2.75;;;2.40;;
20034;SDS011;10178;48.034;9.800;2023-11-19T09:07:28;8.70;;;5.22;;
20034;SDS011;10178;48.034;9.800;2023-11-19T09:11:09;9.88;;;6.82;;
20034;SDS011;10178;48.034;9.800;2023-11-19T09:14:55;18.33;;;8.65;;
20034;SDS011;10178;48.034;9.800;2023-11-19T09:17:44;9.00;;;5.35;;
20034;SDS011;10178;48.034;9.800;2023-11-19T09:20:10;22.00;;;12.75;;
20034;SDS011;10178;48.034;9.800;2023-11-19T09:22:39;6.07;;;4.53;;
20034;SDS011;10178;48.034;9.800;2023-11-19T09:25:05;12.15;;;6.00;;
20034;SDS011;10178;48.034;9.800;2023-11-19T09:27:31;9.93;;;5.97;;
20034;SDS011;10178;48.034;9.800;2023-11-19T09:29:57;8.82;;;6.97;;
20034;SDS011;10178;48.034;9.800;2023-11-19T09:32:23;4.88;;;4.15;;
20034;SDS011;10178;48.034;9.800;2023-11-19T09:34:49;4.88;;;3.67;;
20034;SDS011;10178;48.034;9.800;2023-11-19T09:37:15;4.60;;;4.20;;
20034;SDS011;10178;48.034;9.800;2023-11-19T09:39:41;3.83;;;3.40;;
20034;SDS011;10178;48.034;9.800;2023-11-19T09:42:10;5.10;;;3.42;;
20034;SDS011;10178;48.034;9.800;2023-11-19T09:44:37;5.07;;;3.08;;
20034;SDS011;10178;48.034;9.800;2023-11-19T09:47:04;4.32;;;2.30;;
20034;SDS011;10178;48.034;9.800;2023-11-19T09:49:32;3.40;;;2.90;;
20034;SDS011;10178;48.034;9.800;2023-11-19T09:52:00;3.75;;;2.60;;
20034;SDS011;10178;48.034;9.800;2023-11-19T09:54:25;2.63;;;2.25;;
20034;SDS011;10178;48.034;9.800;2023-11-19T09:56:51;3.35;;;2.78;;
20034;SDS011;10178;48.034;9.800;2023-11-19T09:59:17;2.80;;;2.53;;
20034;SDS011;10178;48.034;9.800;2023-11-19T10:01:49;6.50;;;2.58;;
20034;SDS011;10178;48.034;9.800;2023-11-19T10:04:15;3.28;;;2.47;;
20034;SDS011;10178;48.034;9.800;2023-11-19T10:06:47;2.65;;;2.20;;
20034;SDS011;10178;48.034;9.800;2023-11-19T10:09:21;2.90;;;1.98;;
20034;SDS011;10178;48.034;9.800;2023-11-19T10:11:55;2.20;;;2.00;;
20034;SDS011;10178;48.034;9.800;2023-11-19T10:14:23;8.40;;;2.47;;
20034;SDS011;10178;48.034;9.800;2023-11-19T10:16:54;2.72;;;2.00;;
20034;SDS011;10178;48.034;9.800;2023-11-19T10:19:20;2.05;;;1.52;;
20034;SDS011;10178;48.034;9.800;2023-11-19T10:21:46;4.47;;;1.77;;
20034;SDS011;10178;48.034;9.800;2023-11-19T10:24:12;4.45;;;1.60;;
20034;SDS011;10178;48.034;9.800;2023-11-19T10:26:38;3.47;;;1.60;;
20034;SDS011;10178;48.034;9.800;2023-11-19T10:29:08;1.63;;;1.30;;
20034;SDS011;10178;48.034;9.800;2023-11-19T10:31:38;1.80;;;1.33;;
20034;SDS011;10178;48.034;9.800;2023-11-19T10:34:29;1.98;;;1.27;;
20034;SDS011;10178;48.034;9.800;2023-11-19T10:36:55;1.88;;;1.63;;
20034;SDS011;10178;48.034;9.800;2023-11-19T10:39:21;1.48;;;1.27;;
20034;SDS011;10178;48.034;9.800;2023-11-19T10:41:49;1.67;;;1.25;;
20034;SDS011;10178;48.034;9.800;2023-11-19T10:44:33;1.35;;;1.25;;
20034;SDS011;10178;48.034;9.800;2023-11-19T10:47:05;0.73;;;0.73;;
20034;SDS011;10178;48.034;9.800;2023-11-19T10:49:33;1.13;;;1.00;;
20034;SDS011;10178;48.034;9.800;2023-11-19T10:52:03;0.85;;;0.85;;
20034;SDS011;10178;48.034;9.800;2023-11-19T10:54:32;1.20;;;1.10;;
20034;SDS011;10178;48.034;9.800;2023-11-19T10:56:59;1.02;;;0.90;;
20034;SDS011;10178;48.034;9.800;2023-11-19T10:59:30;0.80;;;0.80;;
20034;SDS011;10178;48.034;9.800;2023-11-19T11:01:59;1.15;;;0.95;;
20034;SDS011;10178;48.034;9.800;2023-11-19T11:04:30;1.13;;;0.93;;
20034;SDS011;10178;48.034;9.800;2023-11-19T11:06:59;2.10;;;0.77;;
20034;SDS011;10178;48.034;9.800;2023-11-19T11:09:27;0.70;;;0.65;;
20034;SDS011;10178;48.034;9.800;2023-11-19T11:11:53;2.85;;;0.88;;
20034;SDS011;10178;48.034;9.800;2023-11-19T11:14:20;0.80;;;0.80;;
20034;SDS011;10178;48.034;9.800;2023-11-19T11:16:52;2.60;;;0.90;;
20034;SDS011;10178;48.034;9.800;2023-11-19T11:19:18;0.63;;;0.63;;
20034;SDS011;10178;48.034;9.800;2023-11-19T11:21:50;0.70;;;0.60;;
20034;SDS011;10178;48.034;9.800;2023-11-19T11:26:58;1.08;;;0.60;;
20034;SDS011;10178;48.034;9.800;2023-11-19T11:29:41;1.00;;;0.70;;
20034;SDS011;10178;48.034;9.800;2023-11-19T11:37:37;0.82;;;0.50;;
20034;SDS011;10178;48.034;9.800;2023-11-19T11:40:13;0.70;;;0.70;;
20034;SDS011;10178;48.034;9.800;2023-11-19T11:42:43;0.50;;;0.50;;
20034;SDS011;10178;48.034;9.800;2023-11-19T11:45:10;2.08;;;0.70;;
20034;SDS011;10178;48.034;9.800;2023-11-19T11:50:21;0.60;;;0.60;;
20034;SDS011;10178;48.034;9.800;2023-11-19T11:55:26;0.57;;;0.57;;
20034;SDS011;10178;48.034;9.800;2023-11-19T11:57:53;0.70;;;0.70;;
20034;SDS011;10178;48.034;9.800;2023-11-19T12:00:21;0.60;;;0.57;;
20034;SDS011;10178;48.034;9.800;2023-11-19T12:02:51;1.58;;;0.75;;
20034;SDS011;10178;48.034;9.800;2023-11-19T12:05:17;1.80;;;0.70;;
20034;SDS011;10178;48.034;9.800;2023-11-19T12:07:44;0.50;;;0.50;;
20034;SDS011;10178;48.034;9.800;2023-11-19T12:10:20;0.57;;;0.43;;
20034;SDS011;10178;48.034;9.800;2023-11-19T12:12:47;0.50;;;0.50;;
20034;SDS011;10178;48.034;9.800;2023-11-19T12:15:13;0.60;;;0.60;;
20034;SDS011;10178;48.034;9.800;2023-11-19T12:17:44;0.40;;;0.40;;
20034;SDS011;10178;48.034;9.800;2023-11-19T12:20:15;0.45;;;0.45;;
20034;SDS011;10178;48.034;9.800;2023-11-19T12:22:46;0.75;;;0.50;;
20034;SDS011;10178;48.034;9.800;2023-11-19T12:25:14;0.80;;;0.40;;
20034;SDS011;10178;48.034;9.800;2023-11-19T12:27:48;0.30;;;0.30;;
20034;SDS011;10178;48.034;9.800;2023-11-19T12:30:22;0.32;;;0.32;;
20034;SDS011;10178;48.034;9.800;2023-11-19T12:32:49;1.27;;;0.47;;
20034;SDS011;10178;48.034;9.800;2023-11-19T12:35:15;0.60;;;0.60;;
20034;SDS011;10178;48.034;9.800;2023-11-19T12:37:45;0.40;;;0.40;;
20034;SDS011;10178;48.034;9.800;2023-11-19T12:42:47;0.50;;;0.50;;
20034;SDS011;10178;48.034;9.800;2023-11-19T12:45:13;0.52;;;0.52;;
20034;SDS011;10178;48.034;9.800;2023-11-19T12:47:41;0.55;;;0.55;;
20034;SDS011;10178;48.034;9.800;2023-11-19T12:50:07;0.50;;;0.50;;
20034;SDS011;10178;48.034;9.800;2023-11-19T12:52:34;0.85;;;0.60;;
20034;SDS011;10178;48.034;9.800;2023-11-19T12:55:02;0.40;;;0.40;;
20034;SDS011;10178;48.034;9.800;2023-11-19T12:57:38;0.50;;;0.50;;
20034;SDS011;10178;48.034;9.800;2023-11-19T13:00:08;1.48;;;0.43;;
20034;SDS011;10178;48.034;9.800;2023-11-19T13:02:47;0.60;;;0.60;;
20034;SDS011;10178;48.034;9.800;2023-11-19T13:05:30;0.40;;;0.40;;
20034;SDS011;10178;48.034;9.800;2023-11-19T13:08:04;0.73;;;0.55;;
20034;SDS011;10178;48.034;9.800;2023-11-19T13:10:32;1.60;;;0.50;;
20034;SDS011;10178;48.034;9.800;2023-11-19T13:13:02;0.93;;;0.70;;
20034;SDS011;10178;48.034;9.800;2023-11-19T13:15:29;1.85;;;0.60;;
20034;SDS011;10178;48.034;9.800;2023-11-19T13:17:54;0.82;;;0.60;;
20034;SDS011;10178;48.034;9.800;2023-11-19T13:20:20;1.65;;;0.50;;
20034;SDS011;10178;48.034;9.800;2023-11-19T13:25:23;0.70;;;0.70;;
20034;SDS011;10178;48.034;9.800;2023-11-19T13:27:49;0.80;;;0.77;;
20034;SDS011;10178;48.034;9.800;2023-11-19T13:30:14;0.50;;;0.50;;
20034;SDS011;10178;48.034;9.800;2023-11-19T13:32:41;1.08;;;0.68;;
20034;SDS011;10178;48.034;9.800;2023-11-19T13:35:08;0.52;;;0.52;;
20034;SDS011;10178;48.034;9.800;2023-11-19T13:37:34;0.50;;;0.50;;
20034;SDS011;10178;48.034;9.800;2023-11-19T13:40:00;1.83;;;0.60;;
20034;SDS011;10178;48.034;9.800;2023-11-19T13:42:25;0.65;;;0.65;;
20034;SDS011;10178;48.034;9.800;2023-11-19T13:44:52;0.68;;;0.68;;
20034;SDS011;10178;48.034;9.800;2023-11-19T13:47:17;0.50;;;0.50;;
20034;SDS011;10178;48.034;9.800;2023-11-19T13:49:44;0.75;;;0.52;;
20034;SDS011;10178;48.034;9.800;2023-11-19T13:52:10;0.98;;;0.50;;
20034;SDS011;10178;48.034;9.800;2023-11-19T13:54:36;0.70;;;0.60;;
20034;SDS011;10178;48.034;9.800;2023-11-19T13:57:02;0.68;;;0.68;;
20034;SDS011;10178;48.034;9.800;2023-11-19T13:59:29;0.90;;;0.70;;
20034;SDS011;10178;48.034;9.800;2023-11-19T14:01:58;1.92;;;1.15;;
20034;SDS011;10178;48.034;9.800;2023-11-19T14:04:24;1.90;;;0.90;;
20034;SDS011;10178;48.034;9.800;2023-11-19T14:06:50;0.60;;;0.60;;
20034;SDS011;10178;48.034;9.800;2023-11-19T14:09:15;3.80;;;0.68;;
20034;SDS011;10178;48.034;9.800;2023-11-19T14:11:48;1.25;;;1.15;;
20034;SDS011;10178;48.034;9.800;2023-11-19T14:14:16;1.33;;;0.60;;
20034;SDS011;10178;48.034;9.800;2023-11-19T14:16:41;2.75;;;0.70;;
20034;SDS011;10178;48.034;9.800;2023-11-19T14:19:07;0.77;;;0.77;;
20034;SDS011;10178;48.034;9.800;2023-11-19T14:21:33;1.60;;;0.63;;
20034;SDS011;10178;48.034;9.800;2023-11-19T14:23:59;1.55;;;0.93;;
20034;SDS011;10178;48.034;9.800;2023-11-19T14:26:24;0.73;;;0.70;;
20034;SDS011;10178;48.034;9.800;2023-11-19T14:28:50;1.40;;;0.80;;
20034;SDS011;10178;48.034;9.800;2023-11-19T14:31:15;1.17;;;0.65;;
20034;SDS011;10178;48.034;9.800;2023-11-19T14:33:41;3.83;;;0.90;;
20034;SDS011;10178;48.034;9.800;2023-11-19T14:36:07;1.38;;;0.75;;
20034;SDS011;10178;48.034;9.800;2023-11-19T14:38:33;2.78;;;1.85;;
20034;SDS011;10178;48.034;9.800;2023-11-19T14:40:58;4.85;;;2.97;;
20034;SDS011;10178;48.034;9.800;2023-11-19T14:43:24;5.82;;;3.47;;
20034;SDS011;10178;48.034;9.800;2023-11-19T14:45:51;1.80;;;1.67;;
20034;SDS011;10178;48.034;9.800;2023-11-19T14:48:23;10.13;;;3.47;;
20034;SDS011;10178;48.034;9.800;2023-11-19T14:50:48;2.22;;;1.40;;
20034;SDS011;10178;48.034;9.800;2023-11-19T14:53:15;6.85;;;2.35;;
20034;SDS011;10178;48.034;9.800;2023-11-19T14:55:42;4.07;;;2.10;;
20034;SDS011;10178;48.034;9.800;2023-11-19T14:58:09;1.85;;;1.27;;
20034;SDS011;10178;48.034;9.800;2023-11-19T15:00:35;2.97;;;1.80;;
20034;SDS011;10178;48.034;9.800;2023-11-19T15:03:01;2.55;;;1.35;;
20034;SDS011;10178;48.034;9.800;2023-11-19T15:05:26;3.00;;;1.90;;
20034;SDS011;10178;48.034;9.800;2023-11-19T15:07:54;2.33;;;1.45;;
20034;SDS011;10178;48.034;9.800;2023-11-19T15:10:20;4.70;;;2.00;;
20034;SDS011;10178;48.034;9.800;2023-11-19T15:12:46;2.67;;;1.83;;